Urb Palmanova, Puerto Rico
Current Conditions -  °F | °C
As of 11:53 AM on Sunday 23 Nov 2014 (Local Time) from TJNR Reporting Station
Clear Clear  
Wind Chill: 86°   Ceiling: Unl
Heat Index: 91°   Visibility: 10mi
Dew Point: 71°   Wind: 13mph
Humidity: 61%   Direction: 100°E
Pressure: 30.07"   Gusts: 25mph
Location:  18.1494°N, 65.8294°W
Report Text: TJNR 231553Z AUTO 10011G22KT 10SM CLR 30/22 A3007 RMK AO2 SLP181 T03000217 $
Loading
Personal Weather Stations






























Interactive Weather Map New forecast layout! Learn more

10-Day Weather Forecast

Advertisements
Track Severe Weather on mobile